Craig, CO

7:49 PM MDT on September 19, 2019 (GMT -0600)
Wright House in Ridgeview | | Change Station
Active Advisory: Freeze Watch

Elev 6339 ft 40.52 °N, 107.59 °W | Updated 45 seconds ago

Clear
Clear
71.4 °F
Feels Like 76 °F
N
2.7
Wind Variable Wind from SSE
Gusts 0.0 mph

Today
High -- | Low -- °F
--% Chance of Precip.
Yesterday
High -- | Low -- °F
Precip. -- in
Pressure 29.73 in
Visibility 10.0 miles
Clouds Clear
Heat Index 76 °F
Dew Point 38 °F
Humidity 29%
Rainfall 0.04 in
Snow Depth Not available.
6:54 AM 7:12 PM
Waning Gibbous, 71% visible
METAR KCAG 200053Z AUTO 18007KT 10SM CLR 23/01 A2988 RMK AO2 SLP068 T02280011
Pressure 29.73 in
Visibility 10.0 miles
Clouds Clear
Heat Index 76 °F
Dew Point 38 °F
Humidity 29%
Rainfall 0.04 in
Snow Depth Not available.
6:54 AM 7:12 PM
Waning Gibbous, 71% visible
METAR KCAG 200053Z AUTO 18007KT 10SM CLR 23/01 A2988 RMK AO2 SLP068 T02280011

Get Your Daily Forecast Email!

Thanks for signing up!

Be on the lookout for a verification email in your inbox.

You'll start receiving severe weather alerts in your inbox..

×

10-Day Weather Forecast

Almanac

Astronomy

Sep. 19, 2019 Rise Set
Actual Time
Civil Twilight
Nautical Twilight
Astronomical Twilight
Moon
Length of Visible Light
Length of Day
Tomorrow will be .
, % of the Moon is Illuminated

Today's Extremes

State Highs State Lows

Community

WunderPhotos

Category 6

Welcome to Category 6. This is the collective home for Weather Underground's featured writeups by Dr. Jeff Masters (right), Bob Henson (left), Chris Burt, and other regular contributors.

Nearby

Air Quality

  Air Quality AQ Index Pollutant
Not available.

Snow Depth

Station Depth Elevation

Earthquake Activity

City Distance Mag. Time & Date
Minimum magnitude displayed is 2.5.

Coastal Water Temperatures

Place Temperature

Stations

Nearby Weather Stations

Station Location Temp. Windchill Dew Point Humidity Wind Precip. Elev Updated Type
                   

Watches & Warnings

Freeze Watch
Issued: 3:23 PM MDT Sep. 19, 2019 – National Weather Service

... Freeze watch in effect from late Friday night through Saturday
morning...

The National Weather Service in Grand Junction has issued a
freeze watch, which is in effect from late Friday night through
Saturday morning.

* Locations... including the cities of Craig, Hayden, Meeker, and
Steamboat Springs.

* Temperatures... lows will range from 32 down to 25 degrees.

* Timing... beginning midnight Saturday and lasting until late
Saturday morning.

* Impacts... sensitive vegetation and swamp coolers will be
impacted by sub-freezing conditions.

Precautionary/preparedness actions...

A freeze watch means sub-freezing temperatures are possible.
These conditions could kill crops and other sensitive vegetation.